Terminal Aerodrome Forecast
Issued by NWS

Home | Current Version | Previous Version | Text Only | Print | Product List | Glossary On
Versions: 1 2 3 4 5 6 7 8 9 10 11 12 13 14 15 16 17
000
FTUS45 KTFX 292326
TAFGTF
TAF
KGTF 292326Z 3000/3024 36006KT P6SM OVC070
     FM300600 12006KT P6SM SCT070 BKN100
     FM301100 VRB05KT P6SM VCFG SCT005 OVC035
     FM301600 05004KT P6SM BKN060=

USA.gov is the U.S. government's official web portal to all federal, state and local government web resources and services.